»·PEaware :: N467TW KSNA-KBLH

N467TW :: KSNA-KBLH

FLIGHT INFORMATION

Flight Status: Arrived
Operator: Privately registered:
United States
More flights under this callsign
Pilot: Drew L. (13237)
Aircraft: BOEING 737-200
(B732)
More flights by this aircraft type
Origin: KSNA John Wayne-Orange Co
United States
Destination: KBLH Blythe
United States
More flights between these airports :: More routes between these airports
Route: +MUSEL8 TRM BLH
File this flight plan on PilotEdge
Remarks:
Altitude:
(Current/Filed)
21,000ft
Speed:
(Current/Filed)
0kts
Departed: 09-Aug-18 08:18 PM
Arrived: 09-Aug-18 09:01 PM
Distance/Time
Traveled:
158nm/0:43
Distance/Time
To Go:
Arrived

Flight Plot

Page will automatically refresh every two minutes.

Flight plan parsing failed; only flown route is shown


Map Options




Map Legend


Flown Route
Filed Route
Departure Airport
Arrival Airport
Navaid (VOR, NDB)
Fix

Horizontal Profiles

Position Reports

Time Latitude Longitude Heading Altitude Ground
Speed
09-Aug-18 20:15 33.681914 -117.866380 68 65ft 0kts
09-Aug-18 20:16 33.681914 -117.866380 68 65ft 0kts
09-Aug-18 20:17 33.681914 -117.866380 68 65ft 0kts
09-Aug-18 20:18 33.681914 -117.866380 68 65ft 0kts
09-Aug-18 20:19 33.676915 -117.868055 207 65ft 101kts
09-Aug-18 20:20 33.638572 -117.891380 192 2167ft 166kts
09-Aug-18 20:21 33.590408 -117.900473 177 4779ft 198kts
09-Aug-18 20:22 33.563601 -117.850193 101 7866ft 198kts
09-Aug-18 20:23 33.548988 -117.773590 101 9429ft 261kts
09-Aug-18 20:24 33.533085 -117.688868 101 12097ft 266kts
09-Aug-18 20:25 33.544633 -117.595039 76 13218ft 320kts
09-Aug-18 20:26 33.565144 -117.491031 75 15389ft 328kts
09-Aug-18 20:27 33.586561 -117.383467 75 17224ft 339kts
09-Aug-18 20:28 33.606354 -117.281736 75 18735ft 348kts
09-Aug-18 20:29 33.626463 -117.178796 75 20089ft 356kts
09-Aug-18 20:30 33.649372 -117.062228 75 21024ft 364kts
09-Aug-18 20:31 33.672758 -116.943037 75 20964ft 374kts
09-Aug-18 20:32 33.689096 -116.820602 96 20921ft 384kts
09-Aug-18 20:33 33.674646 -116.693465 94 20918ft 388kts
09-Aug-18 20:34 33.663118 -116.564384 93 20910ft 391kts
09-Aug-18 20:35 33.652190 -116.436098 93 20889ft 394kts
09-Aug-18 20:36 33.641067 -116.307913 94 20872ft 396kts
09-Aug-18 20:37 33.630088 -116.184155 94 20864ft 396kts
09-Aug-18 20:38 33.620100 -116.053035 86 20859ft 394kts
09-Aug-18 20:39 33.623061 -115.925749 88 19761ft 374kts
09-Aug-18 20:40 33.621792 -115.803291 89 17706ft 362kts
09-Aug-18 20:41 33.619610 -115.684937 89 15699ft 350kts
09-Aug-18 20:42 33.606987 -115.571432 100 13723ft 340kts
09-Aug-18 20:43 33.588528 -115.469710 100 13437ft 283kts
09-Aug-18 20:44 33.572476 -115.381593 100 12401ft 268kts
09-Aug-18 20:45 33.558065 -115.301443 101 11208ft 263kts
09-Aug-18 20:46 33.543684 -115.217080 101 9795ft 255kts
09-Aug-18 20:47 33.530543 -115.135412 101 8663ft 236kts
09-Aug-18 20:48 33.521748 -115.075409 101 8183ft 209kts
09-Aug-18 20:49 33.505741 -114.999924 147 6942ft 198kts
09-Aug-18 20:50 33.473668 -115.021079 260 6171ft 204kts
09-Aug-18 20:51 33.463257 -115.096645 282 5942ft 197kts
09-Aug-18 20:52 33.497507 -115.107389 54 6003ft 178kts
09-Aug-18 20:53 33.514530 -115.040471 80 5031ft 189kts
09-Aug-18 20:54 33.524545 -114.989105 81 4650ft 187kts
09-Aug-18 20:55 33.536927 -114.927816 79 3793ft 189kts
09-Aug-18 20:56 33.556116 -114.868961 69 3012ft 191kts
09-Aug-18 20:57 33.577773 -114.810703 70 2244ft 190kts
09-Aug-18 20:58 33.598178 -114.753075 87 1941ft 184kts
09-Aug-18 20:59 33.600129 -114.695391 94 1751ft 153kts
09-Aug-18 21:00 33.618779 -114.671553 284 1362ft 156kts
09-Aug-18 21:01 33.616551 -114.720570 268 399ft 104kts
09-Aug-18 21:02 33.615167 -114.725395 89 399ft 23kts
09-Aug-18 21:03 33.615131 -114.716236 88 399ft 30kts
09-Aug-18 21:04 33.614672 -114.712299 179 399ft 0kts
09-Aug-18 21:05 33.614672 -114.712299 179 399ft 0kts
09-Aug-18 21:06 33.614672 -114.712299 179 399ft 0kts
09-Aug-18 21:07 33.614672 -114.712299 179 399ft 0kts
09-Aug-18 21:08 33.614672 -114.712299 179 399ft 0kts

Navigation Log

Ident Type
Flight plan parsing failed, navigation log unavailable